Weather forecast for Mount Caburn

United Kingdom, 22 m
N50.859, E0.051


Sounding

Red line — air temperature ˚C.
Blue line — thermal bubble temperature ˚C.
Green line — dew point temperature ˚C.
Wind speed is in meters per second.

Table forecast

GFS 0.25˚ model

temp. wind gust humid. clouds prec. press. hpbl
Sun21 00:00 12 38.0 ne 6 9 74 0 0.0 1026 151
03:00 11 29.0 nne 6 7 76 0 0.0 1024 138
06:00 11 28.0 nne 5 6 82 0 0.0 1023 126
09:00 14 45.0 ne 4 5 82 0 0.0 1021 47
12:00 15 89.0 e 4 5 75 0 0.0 1020 25
15:00 16 86.0 e 4 5 70 0 0.0 1017 26
18:00 15 71.0 ene 5 5 77 0 0.0 1016 42
21:00 12 60.0 ene 6 7 76 0 0.0 1015 95
 
Mon22 00:00 12 60.0 ene 6 8 76 0 0.0 1013 112
03:00 12 71.0 ene 6 8 77 0 0.0 1010 115
06:00 12 81.0 e 6 7 80 1 0.0 1009 118
09:00 14 109.0 ese 5 6 81 54 0.0 1007 74
12:00 14 112.0 ese 5 6 77 35 0.0 1006 64
15:00 15 120.0 ese 4 4 79 15 0.0 1004 26
18:00 15 96.0 e 3 4 81 57 0.0 1002 23
21:00 15 63.0 ene 4 5 82 75 0.8 1002 29
 
Tue23 00:00 14 73.0 ene 5 6 76 69 0.9 1001 54
03:00 13 92.0 e 5 6 79 72 0.0 1000 75
06:00 12 91.0 e 6 8 82 72 0.0 1000 145
09:00 13 102.0 ese 6 7 81 18 0.0 1000 153
12:00 14 100.0 e 5 6 79 16 0.0 1000 76
15:00 15 89.0 e 5 6 77 32 0.0 999 41
18:00 14 65.0 ene 6 8 82 58 0.0 998 120
21:00 12 61.0 ene 6 8 82 100 0.0 999 149
 
Wed24 00:00 12 65.0 ene 6 7 83 100 0.0 998 116
03:00 13 86.0 e 5 6 84 77 0.0 998 97
06:00 13 89.0 e 5 5 85 88 0.0 997 76
09:00 13 170.0 s 4 5 91 100 0.5 998 56
12:00 13 194.0 ssw 5 6 92 78 0.8 998 105
15:00 15 108.0 ese 5 6 86 49 0.0 996 75
18:00 13 205.0 ssw 11 14 93 72 1.2 996 453
21:00 11 222.0 sw 9 12 82 95 0.1 1000 935
 
Thu25 00:00 11 174.0 s 7 10 81 65 0.1 1001 800
03:00 11 152.0 sse 10 12 82 3 0.1 1000 714
06:00 11 148.0 sse 10 12 83 8 0.1 999 609
09:00 11 136.0 se 10 13 80 23 0.0 999 585
12:00 12 150.0 sse 13 17 83 62 0.9 998 1082
15:00 13 174.0 s 11 16 75 66 0.4 997 987
18:00 12 203.0 ssw 14 17 78 68 0.4 999 1282
21:00 12 213.0 ssw 15 18 74 51 0.1 1001 1457
 

0.020 s